Data Viewer
| City | State | Eastern Time | Source | Temp | DewPt | RH | BP | 5 Min Precip | Wind Speed | Wind Dir | 5 Min Wind Max | 5 Min Wind Max Dir |
|---|---|---|---|---|---|---|---|---|---|---|---|---|
| Wilmington (ASOS) | DE | 2026-05-07 15:35 | ASOS | 68 | 35 | 30 | 29.79 | 5 | N | |||
| Wilmington (ASOS) | DE | 2026-05-08 07:30 | ASOS | 52 | 39 | 62 | 29.96 | 0 | N | |||
| Wilmington (ASOS) | DE | 2026-05-08 07:55 | ASOS | 54 | 37 | 54 | 29.97 | 6 | NW | |||
| Wilmington (ASOS) | DE | 2026-05-08 07:51 | ASOS | 54 | 38 | 55 | 29.97 | 5 | NW | |||
| Wilmington (ASOS) | DE | 2026-05-08 07:50 | ASOS | 54 | 37 | 54 | 29.97 | 3 | NW | |||
| Wilmington (ASOS) | DE | 2026-05-08 07:45 | ASOS | 54 | 37 | 54 | 29.97 | 3 | NW | |||
| Wilmington (ASOS) | DE | 2026-05-08 07:40 | ASOS | 52 | 37 | 58 | 29.97 | 3 | WNW | |||
| Wilmington (ASOS) | DE | 2026-05-08 07:35 | ASOS | 52 | 39 | 62 | 29.97 | 0 | N | |||
| Wilmington (ASOS) | DE | 2026-05-08 07:25 | ASOS | 52 | 39 | 62 | 29.96 | 3 | WNW | |||
| Wilmington (ASOS) | DE | 2026-05-08 08:05 | ASOS | 55 | 37 | 51 | 29.97 | 6 | NNW | |||
| Wilmington (ASOS) | DE | 2026-05-08 07:20 | ASOS | 50 | 39 | 66 | 29.96 | 5 | W | |||
| Wilmington (ASOS) | DE | 2026-05-08 07:15 | ASOS | 50 | 39 | 66 | 29.96 | 3 | WNW | |||
| Wilmington (ASOS) | DE | 2026-05-08 07:10 | ASOS | 50 | 39 | 66 | 29.96 | 3 | WNW | |||
| Wilmington (ASOS) | DE | 2026-05-08 07:05 | ASOS | 50 | 39 | 66 | 29.96 | 3 | W | |||
| Wilmington (ASOS) | DE | 2026-05-08 07:00 | ASOS | 48 | 39 | 71 | 29.96 | 5 | W | |||
| Wilmington (ASOS) | DE | 2026-05-08 06:51 | ASOS | 48 | 39 | 71 | 29.97 | 7 | WNW | |||
| Wilmington (ASOS) | DE | 2026-05-08 08:00 | ASOS | 55 | 37 | 51 | 29.97 | 5 | NNW | |||
| Wilmington (ASOS) | DE | 2026-05-08 08:10 | ASOS | 55 | 37 | 51 | 29.97 | 6 | NNW | |||
| Wilmington (ASOS) | DE | 2026-05-08 06:45 | ASOS | 46 | 39 | 76 | 29.96 | 7 | W | |||
| Wilmington (ASOS) | DE | 2026-05-08 08:55 | ASOS | 57 | 34 | 41 | 29.98 | 8 | W | |||
| Wilmington (ASOS) | DE | 2026-05-08 09:25 | ASOS | 59 | 30 | 33 | 29.98 | 6 | WNW | |||
| Wilmington (ASOS) | DE | 2026-05-08 09:20 | ASOS | 57 | 34 | 41 | 29.98 | 3 | WSW | |||
| Wilmington (ASOS) | DE | 2026-05-08 09:15 | ASOS | 57 | 34 | 41 | 29.98 | 5 | W | |||
| Wilmington (ASOS) | DE | 2026-05-08 09:10 | ASOS | 57 | 34 | 41 | 29.98 | 5 | WSW | |||
| Wilmington (ASOS) | DE | 2026-05-08 09:05 | ASOS | 57 | 32 | 38 | 29.98 | 3 | W | |||
| Wilmington (ASOS) | DE | 2026-05-08 09:00 | ASOS | 57 | 34 | 41 | 29.98 | 7 | WNW | |||
| Wilmington (ASOS) | DE | 2026-05-08 08:51 | ASOS | 57 | 35 | 44 | 29.98 | 6 | ||||
| Wilmington (ASOS) | DE | 2026-05-08 08:15 | ASOS | 55 | 35 | 47 | 29.97 | 5 | NW | |||
| Wilmington (ASOS) | DE | 2026-05-08 08:50 | ASOS | 57 | 35 | 44 | 29.98 | 5 | WSW | |||
| Wilmington (ASOS) | DE | 2026-05-08 08:45 | ASOS | 57 | 35 | 44 | 29.98 | 3 | W | |||
| Wilmington (ASOS) | DE | 2026-05-08 08:40 | ASOS | 57 | 35 | 44 | 29.98 | 3 | W | |||
| Wilmington (ASOS) | DE | 2026-05-08 08:35 | ASOS | 57 | 35 | 44 | 29.98 | 7 | NW | |||
| Wilmington (ASOS) | DE | 2026-05-08 08:30 | ASOS | 55 | 34 | 44 | 29.98 | 8 | NNW | |||
| Wilmington (ASOS) | DE | 2026-05-08 08:25 | ASOS | 55 | 35 | 47 | 29.98 | 5 | NW | |||
| Wilmington (ASOS) | DE | 2026-05-08 08:20 | ASOS | 55 | 35 | 47 | 29.98 | 6 | NW | |||
| Wilmington (ASOS) | DE | 2026-05-08 06:50 | ASOS | 48 | 39 | 71 | 29.96 | 6 | WNW | |||
| Wilmington (ASOS) | DE | 2026-05-08 06:40 | ASOS | 46 | 37 | 71 | 29.96 | 5 | W | |||
| Wilmington (ASOS) | DE | 2026-05-08 09:35 | ASOS | 59 | 28 | 31 | 29.97 | |||||
| Wilmington (ASOS) | DE | 2026-05-08 04:30 | ASOS | 48 | 37 | 66 | 29.92 | 8 | NW | |||
| Wilmington (ASOS) | DE | 2026-05-08 04:55 | ASOS | 46 | 37 | 71 | 29.94 | 6 | NNW | |||
| Wilmington (ASOS) | DE | 2026-05-08 04:51 | ASOS | 46 | 37 | 71 | 29.94 | 6 | NW | |||
| Wilmington (ASOS) | DE | 2026-05-08 04:50 | ASOS | 46 | 37 | 71 | 29.94 | 6 | NW | |||
| Wilmington (ASOS) | DE | 2026-05-08 04:45 | ASOS | 46 | 37 | 71 | 29.94 | 6 | NW | |||
| Wilmington (ASOS) | DE | 2026-05-08 04:40 | ASOS | 48 | 37 | 66 | 29.92 | 6 | NW | |||
| Wilmington (ASOS) | DE | 2026-05-08 04:35 | ASOS | 48 | 37 | 66 | 29.92 | 8 | NNW | |||
| Wilmington (ASOS) | DE | 2026-05-08 04:25 | ASOS | 50 | 37 | 62 | 29.92 | 8 | NW | |||
| Wilmington (ASOS) | DE | 2026-05-08 05:05 | ASOS | 46 | 37 | 71 | 29.94 | 8 | NNW | |||
| Wilmington (ASOS) | DE | 2026-05-08 04:20 | ASOS | 50 | 37 | 62 | 29.92 | 9 | NNW | |||
| Wilmington (ASOS) | DE | 2026-05-08 04:15 | ASOS | 50 | 37 | 62 | 29.91 | 10 | NNW | |||
| Wilmington (ASOS) | DE | 2026-05-08 04:10 | ASOS | 50 | 37 | 62 | 29.91 | 10 | NNW | |||
| Wilmington (ASOS) | DE | 2026-05-08 04:05 | ASOS | 52 | 37 | 58 | 29.90 | 13 | NNW | |||
| Wilmington (ASOS) | DE | 2026-05-08 04:00 | ASOS | 50 | 37 | 62 | 29.90 | 13 | NW | |||
| Wilmington (ASOS) | DE | 2026-05-08 03:55 | ASOS | 52 | 37 | 58 | 29.90 | 9 | NNW | |||
| Wilmington (ASOS) | DE | 2026-05-08 03:51 | ASOS | 52 | 37 | 57 | 29.90 | 10 | NW | |||
| Wilmington (ASOS) | DE | 2026-05-08 05:00 | ASOS | 46 | 37 | 71 | 29.94 | 6 | NW | |||
| Wilmington (ASOS) | DE | 2026-05-08 05:10 | ASOS | 46 | 37 | 71 | 29.94 | 7 | NNW | |||
| Wilmington (ASOS) | DE | 2026-05-08 06:35 | ASOS | 46 | 37 | 71 | 29.95 | 3 | WNW | |||
| Wilmington (ASOS) | DE | 2026-05-08 06:00 | ASOS | 45 | 37 | 76 | 29.95 | 6 | NW | |||
| Wilmington (ASOS) | DE | 2026-05-08 06:30 | ASOS | 46 | 37 | 71 | 29.95 | 3 | WNW | |||
| Wilmington (ASOS) | DE | 2026-05-08 06:25 | ASOS | 46 | 37 | 71 | 29.96 | 0 | N | |||
| Wilmington (ASOS) | DE | 2026-05-08 06:20 | ASOS | 46 | 37 | 71 | 29.96 | 0 | N | |||
| Wilmington (ASOS) | DE | 2026-05-08 06:15 | ASOS | 46 | 37 | 71 | 29.95 | 0 | N | |||
| Wilmington (ASOS) | DE | 2026-05-08 06:10 | ASOS | 46 | 37 | 71 | 29.95 | 0 | N | |||
| Wilmington (ASOS) | DE | 2026-05-08 06:05 | ASOS | 45 | 37 | 76 | 29.95 | |||||
| Wilmington (ASOS) | DE | 2026-05-08 05:51 | ASOS | 45 | 37 | 74 | 29.95 | 6 | NW | |||
| Wilmington (ASOS) | DE | 2026-05-08 05:15 | ASOS | 46 | 37 | 71 | 29.94 | 7 | NW | |||
| Wilmington (ASOS) | DE | 2026-05-08 05:50 | ASOS | 45 | 37 | 76 | 29.95 | 7 | NW | |||
| Wilmington (ASOS) | DE | 2026-05-08 05:45 | ASOS | 45 | 37 | 76 | 29.95 | 7 | NW | |||
| Wilmington (ASOS) | DE | 2026-05-08 05:40 | ASOS | 45 | 37 | 76 | 29.94 | 6 | NW | |||
| Wilmington (ASOS) | DE | 2026-05-08 05:35 | ASOS | 45 | 37 | 76 | 29.94 | 7 | NNW | |||
| Wilmington (ASOS) | DE | 2026-05-08 05:30 | ASOS | 45 | 37 | 76 | 29.94 | 7 | NW | |||
| Wilmington (ASOS) | DE | 2026-05-08 05:25 | ASOS | 45 | 37 | 76 | 29.95 | 6 | NW | |||
| Wilmington (ASOS) | DE | 2026-05-08 05:20 | ASOS | 45 | 37 | 76 | 29.94 | 6 | NW | |||
| Wilmington (ASOS) | DE | 2026-05-08 09:30 | ASOS | 61 | 30 | 31 | 29.97 | 6 | WSW | |||
| Wilmington (ASOS) | DE | 2026-05-08 09:40 | ASOS | 61 | 30 | 31 | 29.98 | 7 | WSW | |||
| Wilmington (ASOS) | DE | 2026-05-08 03:45 | ASOS | 52 | 37 | 58 | 29.89 | 14 | NW | |||
| Wilmington (ASOS) | DE | 2026-05-08 13:25 | ASOS | 68 | 34 | 28 | 29.91 | 9 | WSW | |||
| Wilmington (ASOS) | DE | 2026-05-08 13:51 | ASOS | 66 | 34 | 30 | 29.91 | 12 | WSW | |||
| Wilmington (ASOS) | DE | 2026-05-08 13:50 | ASOS | 66 | 34 | 30 | 29.91 | 10 | SW | |||
| Wilmington (ASOS) | DE | 2026-05-08 13:45 | ASOS | 66 | 34 | 30 | 29.91 | 9 | SW | |||
| Wilmington (ASOS) | DE | 2026-05-08 13:40 | ASOS | 66 | 34 | 30 | 29.91 | 13 | SSW | |||
| Wilmington (ASOS) | DE | 2026-05-08 13:35 | ASOS | 66 | 34 | 30 | 29.91 | 13 | WSW | |||
| Wilmington (ASOS) | DE | 2026-05-08 13:30 | ASOS | 66 | 34 | 30 | 29.91 | 10 | SW | |||
| Wilmington (ASOS) | DE | 2026-05-08 13:20 | ASOS | 68 | 34 | 28 | 29.91 | 14 | WSW | |||
| Wilmington (ASOS) | DE | 2026-05-08 14:00 | ASOS | 68 | 32 | 26 | 29.91 | 9 | WSW | |||
| Wilmington (ASOS) | DE | 2026-05-08 13:15 | ASOS | 68 | 34 | 28 | 29.91 | 14 | W | |||
| Wilmington (ASOS) | DE | 2026-05-08 13:10 | ASOS | 66 | 32 | 28 | 29.91 | 14 | SW | |||
| Wilmington (ASOS) | DE | 2026-05-08 13:05 | ASOS | 66 | 32 | 28 | 29.92 | 10 | WSW | |||
| Wilmington (ASOS) | DE | 2026-05-08 13:00 | ASOS | 66 | 32 | 28 | 29.92 | 9 | WSW | |||
| Wilmington (ASOS) | DE | 2026-05-08 12:55 | ASOS | 66 | 34 | 30 | 29.92 | 12 | SW | |||
| Wilmington (ASOS) | DE | 2026-05-08 12:51 | ASOS | 67 | 33 | 28 | 29.92 | 13 | SW | |||
| Wilmington (ASOS) | DE | 2026-05-08 12:50 | ASOS | 66 | 34 | 30 | 29.92 | 14 | SW | |||
| Wilmington (ASOS) | DE | 2026-05-08 13:55 | ASOS | 66 | 34 | 30 | 29.91 | 9 | W | |||
| Wilmington (ASOS) | DE | 2026-05-08 14:05 | ASOS | 66 | 34 | 30 | 29.90 | 15 | W | |||
| Wilmington (ASOS) | DE | 2026-05-08 12:40 | ASOS | 66 | 32 | 28 | 29.92 | 13 | WSW | |||
| Wilmington (ASOS) | DE | 2026-05-08 14:51 | ASOS | 70 | 31 | 23 | 29.89 | 21 | WSW | |||
| Wilmington (ASOS) | DE | 2026-05-08 15:20 | ASOS | 72 | 32 | 23 | 29.88 | 12 | W | |||
| Wilmington (ASOS) | DE | 2026-05-08 15:15 | ASOS | 70 | 30 | 23 | 29.89 | 15 | WSW | |||
| Wilmington (ASOS) | DE | 2026-05-08 15:10 | ASOS | 66 | 30 | 26 | 29.89 | 16 | W | |||
| Wilmington (ASOS) | DE | 2026-05-08 15:05 | ASOS | 66 | 30 | 26 | 29.89 | 13 | W | |||
| Wilmington (ASOS) | DE | 2026-05-08 15:00 | ASOS | 68 | 30 | 24 | 29.89 | 15 | W | |||
| Wilmington (ASOS) | DE | 2026-05-08 14:55 | ASOS | 70 | 30 | 23 | 29.89 | 14 | W | |||
| Wilmington (ASOS) | DE | 2026-05-08 14:50 | ASOS | 72 | 30 | 22 | 29.89 | 18 | WSW | |||
| Wilmington (ASOS) | DE | 2026-05-08 14:10 | ASOS | 70 | 30 | 23 | 29.90 | 15 | W | |||
| Wilmington (ASOS) | DE | 2026-05-08 14:45 | ASOS | 72 | 30 | 22 | 29.89 | 17 | WNW | |||
| Wilmington (ASOS) | DE | 2026-05-08 14:40 | ASOS | 70 | 30 | 23 | 29.89 | 16 | W | |||
| Wilmington (ASOS) | DE | 2026-05-08 14:35 | ASOS | 70 | 30 | 23 | 29.90 | 13 | W | |||
| Wilmington (ASOS) | DE | 2026-05-08 14:30 | ASOS | 70 | 30 | 23 | 29.90 | 18 | W | |||
| Wilmington (ASOS) | DE | 2026-05-08 14:25 | ASOS | 70 | 30 | 23 | 29.90 | 14 | WNW | |||
| Wilmington (ASOS) | DE | 2026-05-08 14:20 | ASOS | 72 | 30 | 22 | 29.90 | 12 | W | |||
| Wilmington (ASOS) | DE | 2026-05-08 14:15 | ASOS | 70 | 30 | 23 | 29.90 | 14 | W | |||
| Wilmington (ASOS) | DE | 2026-05-08 12:45 | ASOS | 66 | 34 | 30 | 29.92 | 12 | SW | |||
| Wilmington (ASOS) | DE | 2026-05-08 12:35 | ASOS | 66 | 34 | 30 | 29.93 | 14 | SW | |||
| Wilmington (ASOS) | DE | 2026-05-08 09:45 | ASOS | 61 | 32 | 34 | 29.97 | 8 | WSW | |||
| Wilmington (ASOS) | DE | 2026-05-08 10:30 | ASOS | 61 | 30 | 31 | 29.97 | 8 | WSW | |||
| Wilmington (ASOS) | DE | 2026-05-08 10:55 | ASOS | 63 | 34 | 34 | 29.96 | 9 | SW | |||
| Wilmington (ASOS) | DE | 2026-05-08 10:51 | ASOS | 63 | 32 | 31 | 29.96 | 8 | SW | |||
| Wilmington (ASOS) | DE | 2026-05-08 10:50 | ASOS | 63 | 32 | 32 | 29.96 | 7 | SW | |||
| Wilmington (ASOS) | DE | 2026-05-08 10:45 | ASOS | 63 | 32 | 32 | 29.97 | 6 | WSW | |||
| Wilmington (ASOS) | DE | 2026-05-08 10:40 | ASOS | 63 | 30 | 29 | 29.97 | |||||
| Wilmington (ASOS) | DE | 2026-05-08 10:35 | ASOS | 61 | 30 | 31 | 29.97 | 10 | SW | |||
| Wilmington (ASOS) | DE | 2026-05-08 10:25 | ASOS | 61 | 30 | 31 | 29.97 | 8 | W | |||
| Wilmington (ASOS) | DE | 2026-05-08 11:05 | ASOS | 63 | 30 | 29 | 29.96 | 10 | SW | |||
| Wilmington (ASOS) | DE | 2026-05-08 10:20 | ASOS | 61 | 28 | 29 | 29.97 | 6 | W | |||
| Wilmington (ASOS) | DE | 2026-05-08 10:10 | ASOS | 63 | 30 | 29 | 29.97 | 8 | W | |||
| Wilmington (ASOS) | DE | 2026-05-08 10:05 | ASOS | 61 | 28 | 29 | 29.97 | 9 | WSW | |||
| Wilmington (ASOS) | DE | 2026-05-08 10:00 | ASOS | 61 | 30 | 31 | 29.97 | 6 | W | |||
| Wilmington (ASOS) | DE | 2026-05-08 09:55 | ASOS | 61 | 30 | 31 | 29.97 | 8 | WSW | |||
| Wilmington (ASOS) | DE | 2026-05-08 09:51 | ASOS | 60 | 31 | 33 | 29.97 | 6 | W | |||
| Wilmington (ASOS) | DE | 2026-05-08 09:50 | ASOS | 61 | 32 | 34 | 29.97 | 6 | WSW | |||
| Wilmington (ASOS) | DE | 2026-05-08 11:00 | ASOS | 63 | 32 | 32 | 29.96 | 10 | WSW | |||
| Wilmington (ASOS) | DE | 2026-05-08 11:10 | ASOS | 63 | 30 | 29 | 29.96 | 12 | WSW | |||
| Wilmington (ASOS) | DE | 2026-05-08 12:30 | ASOS | 66 | 32 | 28 | 29.93 | 10 | WSW | |||
| Wilmington (ASOS) | DE | 2026-05-08 11:55 | ASOS | 66 | 30 | 26 | 29.95 | 14 | WSW | |||
| Wilmington (ASOS) | DE | 2026-05-08 12:25 | ASOS | 64 | 32 | 30 | 29.93 | 14 | SSW | |||
| Wilmington (ASOS) | DE | 2026-05-08 12:20 | ASOS | 66 | 32 | 28 | 29.93 | |||||
| Wilmington (ASOS) | DE | 2026-05-08 12:15 | ASOS | 64 | 32 | 30 | 29.94 | 14 | SSW | |||
| Wilmington (ASOS) | DE | 2026-05-08 12:10 | ASOS | 66 | 32 | 28 | 29.94 | 12 | WSW | |||
| Wilmington (ASOS) | DE | 2026-05-08 12:05 | ASOS | 64 | 30 | 28 | 29.94 | 12 | WSW | |||
| Wilmington (ASOS) | DE | 2026-05-08 12:00 | ASOS | 66 | 30 | 26 | 29.94 | 16 | SW | |||
| Wilmington (ASOS) | DE | 2026-05-08 11:51 | ASOS | 65 | 31 | 28 | 29.95 | 14 | WSW | |||
| Wilmington (ASOS) | DE | 2026-05-08 11:15 | ASOS | 64 | 30 | 28 | 29.96 | 10 | W | |||
| Wilmington (ASOS) | DE | 2026-05-08 11:50 | ASOS | 64 | 30 | 28 | 29.95 | 13 | SW | |||
| Wilmington (ASOS) | DE | 2026-05-08 11:45 | ASOS | 64 | 30 | 28 | 29.95 | 9 | WSW | |||
| Wilmington (ASOS) | DE | 2026-05-08 11:40 | ASOS | 64 | 30 | 28 | 29.95 | 9 | WSW | |||
| Wilmington (ASOS) | DE | 2026-05-08 11:35 | ASOS | 64 | 30 | 28 | 29.95 | 10 | WSW | |||
| Wilmington (ASOS) | DE | 2026-05-08 11:30 | ASOS | 64 | 30 | 28 | 29.95 | 15 | SW | |||
| Wilmington (ASOS) | DE | 2026-05-08 11:25 | ASOS | 64 | 30 | 28 | 29.96 | 10 | WSW | |||
| Wilmington (ASOS) | DE | 2026-05-08 11:20 | ASOS | 64 | 30 | 28 | 29.96 | 9 | W | |||
| Wilmington (ASOS) | DE | 2026-05-08 03:50 | ASOS | 52 | 37 | 58 | 29.90 | 13 | NNW | |||
| Wilmington (ASOS) | DE | 2026-05-08 03:40 | ASOS | 54 | 37 | 54 | 29.89 | 13 | NNW | |||
| Wilmington (ASOS) | DE | 2026-05-07 15:40 | ASOS | 68 | 35 | 30 | 29.78 | 5 | NE | |||
| Wilmington (ASOS) | DE | 2026-05-07 19:10 | ASOS | 63 | 34 | 34 | 29.78 | 8 | NW | |||
| Wilmington (ASOS) | DE | 2026-05-07 19:40 | ASOS | 61 | 35 | 39 | 29.78 | 8 | NNW | |||
| Wilmington (ASOS) | DE | 2026-05-07 19:35 | ASOS | 61 | 35 | 39 | 29.78 | 8 | NW | |||
| Wilmington (ASOS) | DE | 2026-05-07 19:30 | ASOS | 61 | 35 | 39 | 29.78 | 8 | NW | |||
| Wilmington (ASOS) | DE | 2026-05-07 19:25 | ASOS | 63 | 35 | 36 | 29.78 | 9 | NW | |||
| Wilmington (ASOS) | DE | 2026-05-07 19:20 | ASOS | 63 | 34 | 34 | 29.78 | 7 | NW | |||
| Wilmington (ASOS) | DE | 2026-05-07 19:15 | ASOS | 63 | 34 | 34 | 29.78 | 7 | NW | |||
| Wilmington (ASOS) | DE | 2026-05-07 19:05 | ASOS | 64 | 35 | 34 | 29.78 | 8 | NW | |||
| Wilmington (ASOS) | DE | 2026-05-07 19:50 | ASOS | 59 | 35 | 41 | 29.79 | 7 | NW | |||
| Wilmington (ASOS) | DE | 2026-05-07 19:00 | ASOS | 64 | 34 | 32 | 29.78 | 9 | NW | |||
| Wilmington (ASOS) | DE | 2026-05-07 18:55 | ASOS | 64 | 34 | 32 | 29.77 | 9 | WNW | |||
| Wilmington (ASOS) | DE | 2026-05-07 18:51 | ASOS | 64 | 34 | 33 | 29.77 | 9 | WNW | |||
| Wilmington (ASOS) | DE | 2026-05-07 18:50 | ASOS | 64 | 34 | 32 | 29.77 | 9 | NW | |||
| Wilmington (ASOS) | DE | 2026-05-07 18:45 | ASOS | 64 | 34 | 32 | 29.77 | 9 | NW | |||
| Wilmington (ASOS) | DE | 2026-05-07 18:40 | ASOS | 64 | 34 | 32 | 29.77 | 10 | NW | |||
| Wilmington (ASOS) | DE | 2026-05-07 19:45 | ASOS | 59 | 34 | 39 | 29.78 | 7 | NNW | |||
| Wilmington (ASOS) | DE | 2026-05-07 19:51 | ASOS | 59 | 35 | 41 | 29.79 | 7 | NW | |||
| Wilmington (ASOS) | DE | 2026-05-07 18:30 | ASOS | 64 | 34 | 32 | 29.77 | 8 | NW | |||
| Wilmington (ASOS) | DE | 2026-05-07 20:40 | ASOS | 61 | 34 | 36 | 29.80 | 0 | N | |||
| Wilmington (ASOS) | DE | 2026-05-07 21:05 | ASOS | 57 | 35 | 44 | 29.80 | 5 | WSW | |||
| Wilmington (ASOS) | DE | 2026-05-07 21:00 | ASOS | 57 | 35 | 44 | 29.80 | 3 | WSW | |||
| Wilmington (ASOS) | DE | 2026-05-07 20:55 | ASOS | 61 | 35 | 39 | 29.80 | 3 | WSW | |||
| Wilmington (ASOS) | DE | 2026-05-07 20:51 | ASOS | 60 | 35 | 39 | 29.80 | 0 | N | |||
| Wilmington (ASOS) | DE | 2026-05-07 20:50 | ASOS | 59 | 35 | 41 | 29.80 | 0 | N | |||
| Wilmington (ASOS) | DE | 2026-05-07 20:45 | ASOS | 61 | 34 | 36 | 29.80 | 0 | N | |||
| Wilmington (ASOS) | DE | 2026-05-07 20:35 | ASOS | 61 | 34 | 36 | 29.80 | 3 | W | |||
| Wilmington (ASOS) | DE | 2026-05-07 19:55 | ASOS | 57 | 35 | 44 | 29.79 | 6 | NW | |||
| Wilmington (ASOS) | DE | 2026-05-07 20:30 | ASOS | 61 | 34 | 36 | 29.79 | 3 | WNW | |||
| Wilmington (ASOS) | DE | 2026-05-07 20:25 | ASOS | 61 | 34 | 36 | 29.79 | 3 | WNW | |||
| Wilmington (ASOS) | DE | 2026-05-07 20:20 | ASOS | 61 | 34 | 36 | 29.79 | 3 | WNW | |||
| Wilmington (ASOS) | DE | 2026-05-07 20:15 | ASOS | 61 | 34 | 36 | 29.79 | 3 | NW | |||
| Wilmington (ASOS) | DE | 2026-05-07 20:10 | ASOS | 59 | 34 | 39 | 29.79 | 5 | NW | |||
| Wilmington (ASOS) | DE | 2026-05-07 20:05 | ASOS | 57 | 35 | 44 | 29.79 | 5 | NW | |||
| Wilmington (ASOS) | DE | 2026-05-07 20:00 | ASOS | 57 | 35 | 44 | 29.79 | 6 | NW | |||
| Wilmington (ASOS) | DE | 2026-05-07 18:35 | ASOS | 64 | 35 | 34 | 29.77 | 9 | NW | |||
| Wilmington (ASOS) | DE | 2026-05-07 18:25 | ASOS | 66 | 34 | 30 | 29.77 | |||||
| Wilmington (ASOS) | DE | 2026-05-07 21:15 | ASOS | 57 | 35 | 44 | 29.81 | 5 | WSW | |||
| Wilmington (ASOS) | DE | 2026-05-07 16:20 | ASOS | 66 | 34 | 30 | 29.78 | 0 | N | |||
| Wilmington (ASOS) | DE | 2026-05-07 16:50 | ASOS | 66 | 34 | 30 | 29.77 | 0 | N | |||
| Wilmington (ASOS) | DE | 2026-05-07 16:45 | ASOS | 68 | 34 | 28 | 29.77 | 8 | WNW | |||
| Wilmington (ASOS) | DE | 2026-05-07 16:40 | ASOS | 68 | 34 | 28 | 29.77 | 9 | NW | |||
| Wilmington (ASOS) | DE | 2026-05-07 16:35 | ASOS | 68 | 34 | 28 | 29.77 | |||||
| Wilmington (ASOS) | DE | 2026-05-07 16:30 | ASOS | 68 | 34 | 28 | 29.77 | 0 | N | |||
| Wilmington (ASOS) | DE | 2026-05-07 16:25 | ASOS | 68 | 34 | 28 | 29.77 | 3 | NNE | |||
| Wilmington (ASOS) | DE | 2026-05-07 16:15 | ASOS | 66 | 35 | 32 | 29.77 | 5 | N | |||
| Wilmington (ASOS) | DE | 2026-05-07 16:55 | ASOS | 66 | 34 | 30 | 29.77 | |||||
| Wilmington (ASOS) | DE | 2026-05-07 16:10 | ASOS | 66 | 35 | 32 | 29.77 | 6 | NE | |||
| Wilmington (ASOS) | DE | 2026-05-07 16:05 | ASOS | 66 | 34 | 30 | 29.77 | 3 | N | |||
| Wilmington (ASOS) | DE | 2026-05-07 16:00 | ASOS | 66 | 35 | 32 | 29.77 | 6 | NW | |||
| Wilmington (ASOS) | DE | 2026-05-07 15:55 | ASOS | 66 | 37 | 35 | 29.77 | 5 | WNW | |||
| Wilmington (ASOS) | DE | 2026-05-07 15:51 | ASOS | 67 | 36 | 32 | 29.78 | 5 | W | |||
| Wilmington (ASOS) | DE | 2026-05-07 15:50 | ASOS | 66 | 35 | 32 | 29.78 | 3 | W | |||
| Wilmington (ASOS) | DE | 2026-05-07 15:45 | ASOS | 66 | 35 | 32 | 29.78 | |||||
| Wilmington (ASOS) | DE | 2026-05-07 16:51 | ASOS | 66 | 33 | 29 | 29.77 | 0 | N | |||
| Wilmington (ASOS) | DE | 2026-05-07 17:00 | ASOS | 70 | 36 | 28 | 29.78 | 9 | NW | |||
| Wilmington (ASOS) | DE | 2026-05-07 18:20 | ASOS | 66 | 34 | 30 | 29.77 | |||||
| Wilmington (ASOS) | DE | 2026-05-07 17:50 | ASOS | 66 | 34 | 30 | 29.77 | |||||
| Wilmington (ASOS) | DE | 2026-05-07 18:15 | ASOS | 66 | 34 | 30 | 29.77 | 5 | NW | |||
| Wilmington (ASOS) | DE | 2026-05-07 18:10 | ASOS | 66 | 34 | 30 | 29.78 | 9 | NW | |||
| Wilmington (ASOS) | DE | 2026-05-07 18:05 | ASOS | 66 | 34 | 30 | 29.78 | 3 | WNW | |||
| Wilmington (ASOS) | DE | 2026-05-07 18:00 | ASOS | 66 | 34 | 30 | 29.77 | 8 | NW | |||
| Wilmington (ASOS) | DE | 2026-05-07 17:55 | ASOS | 66 | 34 | 30 | 29.77 | 12 | NW | |||
| Wilmington (ASOS) | DE | 2026-05-07 17:51 | ASOS | 67 | 34 | 29 | 29.77 | |||||
| Wilmington (ASOS) | DE | 2026-05-07 17:45 | ASOS | 66 | 34 | 30 | 29.78 | 3 | NW | |||
| Wilmington (ASOS) | DE | 2026-05-07 17:05 | ASOS | 66 | 34 | 30 | 29.78 | 6 | W | |||
| Wilmington (ASOS) | DE | 2026-05-07 17:40 | ASOS | 66 | 34 | 30 | 29.78 | 6 | NW | |||
| Wilmington (ASOS) | DE | 2026-05-07 17:35 | ASOS | 66 | 34 | 30 | 29.78 | 12 | WNW | |||
| Wilmington (ASOS) | DE | 2026-05-07 17:30 | ASOS | 68 | 35 | 30 | 29.78 | 10 | WNW | |||
| Wilmington (ASOS) | DE | 2026-05-07 17:25 | ASOS | 66 | 34 | 30 | 29.78 | 6 | NNW | |||
| Wilmington (ASOS) | DE | 2026-05-07 17:20 | ASOS | 66 | 34 | 30 | 29.78 | 9 | NW | |||
| Wilmington (ASOS) | DE | 2026-05-07 17:15 | ASOS | 66 | 34 | 30 | 29.78 | 10 | WNW | |||
| Wilmington (ASOS) | DE | 2026-05-07 17:10 | ASOS | 68 | 35 | 30 | 29.78 | 10 | WNW | |||
| Wilmington (ASOS) | DE | 2026-05-07 21:10 | ASOS | 57 | 35 | 44 | 29.80 | 5 | WSW | |||
| Wilmington (ASOS) | DE | 2026-05-07 21:20 | ASOS | 57 | 37 | 47 | 29.81 | 5 | WSW | |||
| Wilmington (ASOS) | DE | 2026-05-08 03:35 | ASOS | 52 | 37 | 58 | 29.89 | 16 | NNW | |||
| Wilmington (ASOS) | DE | 2026-05-08 01:15 | ASOS | 55 | 44 | 67 | 29.84 | 12 | WSW | |||
| Wilmington (ASOS) | DE | 2026-05-08 01:50 | ASOS | 54 | 45 | 71 | 29.85 | 10 | W | |||
| Wilmington (ASOS) | DE | 2026-05-08 01:45 | ASOS | 54 | 45 | 71 | 29.84 | 12 | WSW | |||
| Wilmington (ASOS) | DE | 2026-05-08 01:35 | ASOS | 55 | 44 | 67 | 29.84 | 12 | WSW | |||
| Wilmington (ASOS) | DE | 2026-05-08 01:30 | ASOS | 55 | 44 | 67 | 29.84 | 10 | WSW | |||
| Wilmington (ASOS) | DE | 2026-05-08 01:25 | ASOS | 55 | 44 | 67 | 29.84 | 12 | WSW | |||
| Wilmington (ASOS) | DE | 2026-05-08 01:20 | ASOS | 55 | 44 | 67 | 29.84 | 10 | WSW | |||
| Wilmington (ASOS) | DE | 2026-05-08 01:10 | ASOS | 55 | 44 | 67 | 29.84 | 12 | WSW | |||
| Wilmington (ASOS) | DE | 2026-05-08 02:00 | ASOS | 54 | 45 | 71 | 29.85 | 9 | W | |||
| Wilmington (ASOS) | DE | 2026-05-08 01:05 | ASOS | 55 | 44 | 67 | 29.84 | 10 | WSW | |||
| Wilmington (ASOS) | DE | 2026-05-08 00:51 | ASOS | 56 | 44 | 64 | 29.84 | 12 | W | |||
| Wilmington (ASOS) | DE | 2026-05-08 00:50 | ASOS | 55 | 44 | 67 | 29.84 | 10 | W | |||
| Wilmington (ASOS) | DE | 2026-05-08 00:45 | ASOS | 55 | 44 | 67 | 29.84 | 10 | W | |||
| Wilmington (ASOS) | DE | 2026-05-08 00:40 | ASOS | 55 | 44 | 67 | 29.84 | 10 | WSW | |||
| Wilmington (ASOS) | DE | 2026-05-08 00:35 | ASOS | 55 | 44 | 67 | 29.83 | 9 | WSW | |||
| Wilmington (ASOS) | DE | 2026-05-08 00:30 | ASOS | 55 | 44 | 67 | 29.83 | 9 | WSW | |||
| Wilmington (ASOS) | DE | 2026-05-08 01:51 | ASOS | 54 | 44 | 69 | 29.85 | 10 | W | |||
| Wilmington (ASOS) | DE | 2026-05-08 02:05 | ASOS | 54 | 45 | 71 | 29.85 | 9 | W | |||
| Wilmington (ASOS) | DE | 2026-05-08 00:20 | ASOS | 55 | 44 | 67 | 29.83 | 10 | WSW | |||
| Wilmington (ASOS) | DE | 2026-05-08 02:51 | ASOS | 52 | 39 | 61 | 29.87 | 10 | NW | |||
| Wilmington (ASOS) | DE | 2026-05-08 03:30 | ASOS | 54 | 37 | 54 | 29.89 | 14 | NW | |||
| Wilmington (ASOS) | DE | 2026-05-08 03:25 | ASOS | 52 | 37 | 58 | 29.88 | 13 | NW | |||
| Wilmington (ASOS) | DE | 2026-05-08 03:20 | ASOS | 54 | 37 | 54 | 29.88 | 13 | NW | |||
| Wilmington (ASOS) | DE | 2026-05-08 03:15 | ASOS | 54 | 39 | 58 | 29.88 | 14 | NW | |||
| Wilmington (ASOS) | DE | 2026-05-08 03:10 | ASOS | 54 | 39 | 58 | 29.88 | 15 | NW | |||
| Wilmington (ASOS) | DE | 2026-05-08 03:05 | ASOS | 54 | 39 | 58 | 29.87 | 12 | NW | |||
| Wilmington (ASOS) | DE | 2026-05-08 02:50 | ASOS | 52 | 39 | 62 | 29.87 | 12 | NW | |||
| Wilmington (ASOS) | DE | 2026-05-08 02:10 | ASOS | 54 | 43 | 67 | 29.85 | 14 | W | |||
| Wilmington (ASOS) | DE | 2026-05-08 02:45 | ASOS | 54 | 39 | 58 | 29.87 | 12 | NW | |||
| Wilmington (ASOS) | DE | 2026-05-08 02:40 | ASOS | 52 | 39 | 62 | 29.86 | 12 | NW | |||
| Wilmington (ASOS) | DE | 2026-05-08 02:35 | ASOS | 54 | 41 | 62 | 29.86 | 9 | WNW | |||
| Wilmington (ASOS) | DE | 2026-05-08 02:30 | ASOS | 54 | 41 | 62 | 29.86 | 12 | WNW | |||
| Wilmington (ASOS) | DE | 2026-05-08 02:25 | ASOS | 54 | 43 | 67 | 29.86 | 12 | W | |||
| Wilmington (ASOS) | DE | 2026-05-08 02:20 | ASOS | 54 | 43 | 67 | 29.86 | 12 | W | |||
| Wilmington (ASOS) | DE | 2026-05-08 02:15 | ASOS | 54 | 43 | 67 | 29.85 | 13 | W | |||
| Wilmington (ASOS) | DE | 2026-05-08 00:25 | ASOS | 55 | 44 | 67 | 29.83 | 12 | WSW | |||
| Wilmington (ASOS) | DE | 2026-05-08 00:15 | ASOS | 55 | 44 | 67 | 29.83 | 12 | W | |||
| Wilmington (ASOS) | DE | 2026-05-07 21:25 | ASOS | 57 | 37 | 47 | 29.81 | 6 | WSW | |||
| Wilmington (ASOS) | DE | 2026-05-07 22:10 | ASOS | 55 | 44 | 67 | 29.83 | 13 | SW | |||
| Wilmington (ASOS) | DE | 2026-05-07 22:40 | ASOS | 55 | 43 | 62 | 29.83 | 12 | WSW | |||
| Wilmington (ASOS) | DE | 2026-05-07 22:35 | ASOS | 55 | 44 | 67 | 29.83 | 10 | WSW | |||
| Wilmington (ASOS) | DE | 2026-05-07 22:30 | ASOS | 55 | 44 | 67 | 29.83 | 10 | SW | |||
| Wilmington (ASOS) | DE | 2026-05-07 22:25 | ASOS | 55 | 44 | 67 | 29.83 | 13 | SW | |||
| Wilmington (ASOS) | DE | 2026-05-07 22:20 | ASOS | 55 | 44 | 67 | 29.83 | 13 | SW | |||
| Wilmington (ASOS) | DE | 2026-05-07 22:15 | ASOS | 55 | 44 | 67 | 29.83 | 13 | WSW | |||
| Wilmington (ASOS) | DE | 2026-05-07 22:05 | ASOS | 55 | 44 | 67 | 29.83 | 12 | SW | |||
| Wilmington (ASOS) | DE | 2026-05-07 22:50 | ASOS | 55 | 43 | 62 | 29.83 | 10 | WSW | |||
| Wilmington (ASOS) | DE | 2026-05-07 22:00 | ASOS | 55 | 44 | 67 | 29.83 | 12 | WSW | |||
| Wilmington (ASOS) | DE | 2026-05-07 21:51 | ASOS | 56 | 44 | 64 | 29.82 | 12 | WSW | |||
| Wilmington (ASOS) | DE | 2026-05-07 21:50 | ASOS | 55 | 43 | 62 | 29.82 | 13 | WSW | |||
| Wilmington (ASOS) | DE | 2026-05-07 21:45 | ASOS | 55 | 43 | 62 | 29.82 | 13 | WSW | |||
| Wilmington (ASOS) | DE | 2026-05-07 21:40 | ASOS | 57 | 43 | 59 | 29.82 | 14 | WSW | |||
| Wilmington (ASOS) | DE | 2026-05-07 21:35 | ASOS | 57 | 39 | 51 | 29.82 | 13 | WSW | |||
| Wilmington (ASOS) | DE | 2026-05-07 21:30 | ASOS | 55 | 35 | 47 | 29.81 | 10 | WSW | |||
| Wilmington (ASOS) | DE | 2026-05-07 22:45 | ASOS | 55 | 43 | 62 | 29.83 | 12 | WSW | |||
| Wilmington (ASOS) | DE | 2026-05-07 22:51 | ASOS | 54 | 43 | 66 | 29.83 | 9 | WSW | |||
| Wilmington (ASOS) | DE | 2026-05-08 00:10 | ASOS | 55 | 44 | 67 | 29.83 | 9 | W | |||
| Wilmington (ASOS) | DE | 2026-05-07 23:40 | ASOS | 54 | 45 | 71 | 29.83 | 8 | WSW | |||
| Wilmington (ASOS) | DE | 2026-05-08 00:05 | ASOS | 55 | 44 | 67 | 29.83 | 9 | WSW | |||
| Wilmington (ASOS) | DE | 2026-05-08 00:00 | ASOS | 55 | 44 | 67 | 29.83 | 9 | WSW | |||
| Wilmington (ASOS) | DE | 2026-05-07 23:55 | ASOS | 55 | 44 | 67 | 29.83 | 10 | WSW | |||
| Wilmington (ASOS) | DE | 2026-05-07 23:51 | ASOS | 55 | 44 | 66 | 29.83 | 10 | WSW | |||
| Wilmington (ASOS) | DE | 2026-05-07 23:50 | ASOS | 55 | 44 | 67 | 29.83 | 10 | WSW | |||
| Wilmington (ASOS) | DE | 2026-05-07 23:45 | ASOS | 55 | 44 | 67 | 29.83 | 8 | WSW | |||
| Wilmington (ASOS) | DE | 2026-05-07 23:35 | ASOS | 54 | 43 | 67 | 29.83 | 9 | WSW | |||
| Wilmington (ASOS) | DE | 2026-05-07 22:55 | ASOS | 54 | 43 | 67 | 29.83 | 10 | WSW | |||
| Wilmington (ASOS) | DE | 2026-05-07 23:30 | ASOS | 54 | 43 | 67 | 29.83 | 10 | WSW | |||
| Wilmington (ASOS) | DE | 2026-05-07 23:25 | ASOS | 54 | 43 | 67 | 29.83 | 8 | WSW | |||
| Wilmington (ASOS) | DE | 2026-05-07 23:20 | ASOS | 54 | 43 | 67 | 29.83 | 9 | WSW | |||
| Wilmington (ASOS) | DE | 2026-05-07 23:15 | ASOS | 54 | 43 | 67 | 29.83 | 10 | WSW | |||
| Wilmington (ASOS) | DE | 2026-05-07 23:10 | ASOS | 54 | 43 | 67 | 29.83 | 10 | WSW | |||
| Wilmington (ASOS) | DE | 2026-05-07 23:05 | ASOS | 54 | 43 | 67 | 29.83 | 13 | WSW | |||
| Wilmington (ASOS) | DE | 2026-05-07 23:00 | ASOS | 54 | 43 | 67 | 29.83 | 10 | WSW | |||
| Wilmington (ASOS) | DE | 2026-05-08 15:25 | ASOS | 72 | 30 | 22 | 29.88 | 18 | W |
data collection created in 0.045154094696045 (queried in 0.011488) rendered in: 0.00057387351989746

